sensor_id;sensor_type;location;lat;lon;timestamp;pressure;altitude;pressure_sealevel;temperature;humidity
19005;BME280;9635;52.078;8.648;2024-03-06T00:03:42;100603.94;;;5.22;100.00
19005;BME280;9635;52.078;8.648;2024-03-06T00:08:46;100618.31;;;5.35;100.00
19005;BME280;9635;52.078;8.648;2024-03-06T00:13:50;100618.56;;;5.46;100.00
19005;BME280;9635;52.078;8.648;2024-03-06T00:18:53;100628.19;;;5.49;100.00
19005;BME280;9635;52.078;8.648;2024-03-06T00:23:56;100625.44;;;5.50;100.00
19005;BME280;9635;52.078;8.648;2024-03-06T00:29:00;100628.63;;;5.41;100.00
19005;BME280;9635;52.078;8.648;2024-03-06T00:34:04;100643.31;;;5.48;100.00
19005;BME280;9635;52.078;8.648;2024-03-06T00:39:07;100644.63;;;5.57;100.00
19005;BME280;9635;52.078;8.648;2024-03-06T00:44:12;100650.69;;;5.59;100.00
19005;BME280;9635;52.078;8.648;2024-03-06T00:49:15;100649.84;;;5.59;100.00
19005;BME280;9635;52.078;8.648;2024-03-06T00:54:18;100656.75;;;5.63;100.00
19005;BME280;9635;52.078;8.648;2024-03-06T00:59:22;100661.72;;;5.53;100.00
19005;BME280;9635;52.078;8.648;2024-03-06T01:04:28;100660.34;;;5.46;100.00
19005;BME280;9635;52.078;8.648;2024-03-06T01:09:31;100666.53;;;5.46;100.00
19005;BME280;9635;52.078;8.648;2024-03-06T01:14:36;100667.28;;;5.48;100.00
19005;BME280;9635;52.078;8.648;2024-03-06T01:19:41;100675.34;;;5.31;100.00
19005;BME280;9635;52.078;8.648;2024-03-06T01:24:45;100684.78;;;5.21;100.00
19005;BME280;9635;52.078;8.648;2024-03-06T01:29:52;100687.41;;;5.38;100.00
19005;BME280;9635;52.078;8.648;2024-03-06T01:34:55;100677.00;;;5.34;100.00
19005;BME280;9635;52.078;8.648;2024-03-06T01:39:58;100681.88;;;5.25;100.00
19005;BME280;9635;52.078;8.648;2024-03-06T01:45:03;100684.53;;;5.25;100.00
19005;BME280;9635;52.078;8.648;2024-03-06T01:50:07;100684.81;;;5.37;100.00
19005;BME280;9635;52.078;8.648;2024-03-06T01:55:12;100692.91;;;5.35;100.00
19005;BME280;9635;52.078;8.648;2024-03-06T02:00:17;100696.59;;;5.33;100.00
19005;BME280;9635;52.078;8.648;2024-03-06T02:05:20;100697.34;;;5.35;100.00
19005;BME280;9635;52.078;8.648;2024-03-06T02:10:23;100695.56;;;5.35;100.00
19005;BME280;9635;52.078;8.648;2024-03-06T02:15:29;100700.19;;;5.32;100.00
19005;BME280;9635;52.078;8.648;2024-03-06T02:20:33;100695.88;;;5.29;100.00
19005;BME280;9635;52.078;8.648;2024-03-06T02:25:37;100706.00;;;5.22;100.00
19005;BME280;9635;52.078;8.648;2024-03-06T02:30:40;100704.13;;;5.24;100.00
19005;BME280;9635;52.078;8.648;2024-03-06T02:35:44;100708.88;;;5.35;100.00
19005;BME280;9635;52.078;8.648;2024-03-06T02:40:47;100712.28;;;5.21;100.00
19005;BME280;9635;52.078;8.648;2024-03-06T02:45:51;100719.22;;;5.41;100.00
19005;BME280;9635;52.078;8.648;2024-03-06T02:50:55;100713.09;;;5.39;100.00
19005;BME280;9635;52.078;8.648;2024-03-06T02:55:59;100708.56;;;5.41;100.00
19005;BME280;9635;52.078;8.648;2024-03-06T03:01:02;100706.56;;;5.45;100.00
19005;BME280;9635;52.078;8.648;2024-03-06T03:06:06;100707.56;;;5.26;100.00
19005;BME280;9635;52.078;8.648;2024-03-06T03:11:10;100714.38;;;5.32;100.00
19005;BME280;9635;52.078;8.648;2024-03-06T03:16:17;100714.72;;;5.42;100.00
19005;BME280;9635;52.078;8.648;2024-03-06T03:21:23;100724.88;;;5.35;100.00
19005;BME280;9635;52.078;8.648;2024-03-06T03:26:26;100732.94;;;5.34;100.00
19005;BME280;9635;52.078;8.648;2024-03-06T03:31:29;100735.59;;;5.34;100.00
19005;BME280;9635;52.078;8.648;2024-03-06T03:36:34;100741.88;;;5.48;100.00
19005;BME280;9635;52.078;8.648;2024-03-06T03:41:37;100740.41;;;5.43;100.00
19005;BME280;9635;52.078;8.648;2024-03-06T03:46:40;100742.56;;;5.36;100.00
19005;BME280;9635;52.078;8.648;2024-03-06T03:51:44;100742.22;;;5.42;100.00
19005;BME280;9635;52.078;8.648;2024-03-06T03:56:47;100749.88;;;5.48;100.00
19005;BME280;9635;52.078;8.648;2024-03-06T04:01:50;100750.41;;;5.39;100.00
19005;BME280;9635;52.078;8.648;2024-03-06T04:06:55;100758.22;;;5.42;100.00
19005;BME280;9635;52.078;8.648;2024-03-06T04:12:01;100758.78;;;5.32;100.00
19005;BME280;9635;52.078;8.648;2024-03-06T04:17:04;100768.13;;;5.40;100.00
19005;BME280;9635;52.078;8.648;2024-03-06T04:22:09;100771.53;;;5.42;100.00
19005;BME280;9635;52.078;8.648;2024-03-06T04:27:12;100781.28;;;5.26;100.00
19005;BME280;9635;52.078;8.648;2024-03-06T04:32:15;100769.78;;;5.25;100.00
19005;BME280;9635;52.078;8.648;2024-03-06T04:37:20;100783.88;;;5.27;100.00
19005;BME280;9635;52.078;8.648;2024-03-06T04:42:23;100787.25;;;5.31;100.00
19005;BME280;9635;52.078;8.648;2024-03-06T04:47:26;100796.25;;;5.28;100.00
19005;BME280;9635;52.078;8.648;2024-03-06T04:52:32;100794.31;;;5.32;100.00
19005;BME280;9635;52.078;8.648;2024-03-06T04:57:36;100802.53;;;5.27;100.00
19005;BME280;9635;52.078;8.648;2024-03-06T05:02:39;100804.25;;;5.28;100.00
19005;BME280;9635;52.078;8.648;2024-03-06T05:08:02;100804.06;;;5.32;100.00
19005;BME280;9635;52.078;8.648;2024-03-06T05:13:23;100816.31;;;5.36;100.00
19005;BME280;9635;52.078;8.648;2024-03-06T05:18:43;100828.59;;;5.38;100.00
19005;BME280;9635;52.078;8.648;2024-03-06T05:24:06;100829.47;;;5.39;100.00
19005;BME280;9635;52.078;8.648;2024-03-06T05:29:26;100831.19;;;5.40;100.00
19005;BME280;9635;52.078;8.648;2024-03-06T05:34:47;100841.84;;;5.40;100.00
19005;BME280;9635;52.078;8.648;2024-03-06T05:40:10;100846.47;;;5.36;100.00
19005;BME280;9635;52.078;8.648;2024-03-06T05:45:31;100851.09;;;5.33;100.00
19005;BME280;9635;52.078;8.648;2024-03-06T05:50:51;100853.06;;;5.46;100.00
19005;BME280;9635;52.078;8.648;2024-03-06T05:56:13;100853.75;;;5.50;100.00
19005;BME280;9635;52.078;8.648;2024-03-06T06:01:34;100862.53;;;5.52;100.00
19005;BME280;9635;52.078;8.648;2024-03-06T06:06:37;100871.59;;;5.48;100.00
19005;BME280;9635;52.078;8.648;2024-03-06T06:11:42;100882.81;;;5.55;100.00
19005;BME280;9635;52.078;8.648;2024-03-06T06:16:45;100890.88;;;5.53;100.00
19005;BME280;9635;52.078;8.648;2024-03-06T06:21:48;100904.00;;;5.58;100.00
19005;BME280;9635;52.078;8.648;2024-03-06T06:26:52;100898.56;;;5.59;100.00
19005;BME280;9635;52.078;8.648;2024-03-06T06:31:56;100906.66;;;5.58;100.00
19005;BME280;9635;52.078;8.648;2024-03-06T06:36:59;100912.44;;;5.66;100.00
19005;BME280;9635;52.078;8.648;2024-03-06T06:42:03;100917.53;;;5.70;100.00
19005;BME280;9635;52.078;8.648;2024-03-06T06:47:06;100918.75;;;5.81;100.00
19005;BME280;9635;52.078;8.648;2024-03-06T06:52:09;100935.38;;;5.86;100.00
19005;BME280;9635;52.078;8.648;2024-03-06T06:57:14;100943.22;;;5.89;100.00
19005;BME280;9635;52.078;8.648;2024-03-06T07:02:17;100946.50;;;5.94;100.00
19005;BME280;9635;52.078;8.648;2024-03-06T07:07:20;100948.50;;;5.90;100.00
19005;BME280;9635;52.078;8.648;2024-03-06T07:12:24;100960.63;;;5.96;100.00
19005;BME280;9635;52.078;8.648;2024-03-06T07:17:28;100973.00;;;5.97;100.00
19005;BME280;9635;52.078;8.648;2024-03-06T07:22:31;100972.84;;;6.00;100.00
19005;BME280;9635;52.078;8.648;2024-03-06T07:27:37;100978.34;;;5.97;100.00
19005;BME280;9635;52.078;8.648;2024-03-06T07:32:40;100973.31;;;6.08;100.00
19005;BME280;9635;52.078;8.648;2024-03-06T07:37:43;100980.13;;;6.14;100.00
19005;BME280;9635;52.078;8.648;2024-03-06T07:42:48;100987.38;;;6.28;100.00
19005;BME280;9635;52.078;8.648;2024-03-06T07:47:51;100993.72;;;6.43;100.00
19005;BME280;9635;52.078;8.648;2024-03-06T07:52:55;101000.19;;;6.54;100.00
19005;BME280;9635;52.078;8.648;2024-03-06T07:57:59;101007.97;;;6.59;100.00
19005;BME280;9635;52.078;8.648;2024-03-06T08:03:03;101014.25;;;6.74;100.00
19005;BME280;9635;52.078;8.648;2024-03-06T08:08:06;101025.47;;;6.80;100.00
19005;BME280;9635;52.078;8.648;2024-03-06T08:13:11;101027.66;;;6.90;100.00
19005;BME280;9635;52.078;8.648;2024-03-06T08:18:14;101032.88;;;6.75;100.00
19005;BME280;9635;52.078;8.648;2024-03-06T08:23:17;101043.47;;;6.77;100.00
19005;BME280;9635;52.078;8.648;2024-03-06T08:28:22;101044.03;;;6.66;100.00
19005;BME280;9635;52.078;8.648;2024-03-06T08:33:25;101043.19;;;6.66;100.00
19005;BME280;9635;52.078;8.648;2024-03-06T08:38:28;101055.00;;;6.77;100.00
19005;BME280;9635;52.078;8.648;2024-03-06T08:43:33;101059.84;;;6.87;100.00
19005;BME280;9635;52.078;8.648;2024-03-06T08:48:38;101069.06;;;6.81;100.00
19005;BME280;9635;52.078;8.648;2024-03-06T08:53:41;101077.16;;;6.79;100.00
19005;BME280;9635;52.078;8.648;2024-03-06T08:58:46;101080.56;;;6.66;100.00
19005;BME280;9635;52.078;8.648;2024-03-06T09:03:49;101081.53;;;6.65;100.00
19005;BME280;9635;52.078;8.648;2024-03-06T09:08:52;101089.13;;;6.72;100.00
19005;BME280;9635;52.078;8.648;2024-03-06T09:13:58;101093.97;;;6.81;100.00
19005;BME280;9635;52.078;8.648;2024-03-06T09:19:04;101100.00;;;6.85;100.00
19005;BME280;9635;52.078;8.648;2024-03-06T09:24:07;101095.00;;;6.79;100.00
19005;BME280;9635;52.078;8.648;2024-03-06T09:29:12;101118.41;;;6.91;100.00
19005;BME280;9635;52.078;8.648;2024-03-06T09:34:15;101115.91;;;7.04;100.00
19005;BME280;9635;52.078;8.648;2024-03-06T09:39:20;101115.00;;;7.05;100.00
19005;BME280;9635;52.078;8.648;2024-03-06T09:44:26;101128.19;;;7.08;100.00
19005;BME280;9635;52.078;8.648;2024-03-06T09:49:29;101129.47;;;7.17;100.00
19005;BME280;9635;52.078;8.648;2024-03-06T09:54:32;101136.53;;;7.18;100.00
19005;BME280;9635;52.078;8.648;2024-03-06T09:59:37;101134.22;;;7.27;100.00
19005;BME280;9635;52.078;8.648;2024-03-06T10:04:45;101141.66;;;7.38;100.00
19005;BME280;9635;52.078;8.648;2024-03-06T10:09:48;101149.50;;;7.41;100.00
19005;BME280;9635;52.078;8.648;2024-03-06T10:14:53;101152.34;;;7.38;100.00
19005;BME280;9635;52.078;8.648;2024-03-06T10:19:58;101151.31;;;7.41;100.00
19005;BME280;9635;52.078;8.648;2024-03-06T10:25:07;101150.09;;;7.62;100.00
19005;BME280;9635;52.078;8.648;2024-03-06T10:30:13;101147.16;;;7.67;100.00
19005;BME280;9635;52.078;8.648;2024-03-06T10:35:18;101152.56;;;7.81;100.00
19005;BME280;9635;52.078;8.648;2024-03-06T10:40:22;101164.25;;;7.80;100.00
19005;BME280;9635;52.078;8.648;2024-03-06T10:45:32;101165.88;;;7.67;100.00
19005;BME280;9635;52.078;8.648;2024-03-06T10:50:39;101165.09;;;7.81;100.00
19005;BME280;9635;52.078;8.648;2024-03-06T10:55:44;101174.75;;;7.99;100.00
19005;BME280;9635;52.078;8.648;2024-03-06T11:00:50;101177.22;;;8.18;100.00
19005;BME280;9635;52.078;8.648;2024-03-06T11:05:54;101168.91;;;8.23;100.00
19005;BME280;9635;52.078;8.648;2024-03-06T11:11:20;101178.75;;;8.22;100.00
19005;BME280;9635;52.078;8.648;2024-03-06T11:16:30;101180.84;;;8.17;100.00
19005;BME280;9635;52.078;8.648;2024-03-06T11:21:45;101186.72;;;8.24;100.00
19005;BME280;9635;52.078;8.648;2024-03-06T11:27:00;101194.19;;;8.33;100.00
19005;BME280;9635;52.078;8.648;2024-03-06T11:32:07;101203.56;;;8.26;100.00
19005;BME280;9635;52.078;8.648;2024-03-06T11:37:20;101201.03;;;8.23;100.00
19005;BME280;9635;52.078;8.648;2024-03-06T11:42:33;101199.72;;;8.30;100.00
19005;BME280;9635;52.078;8.648;2024-03-06T11:53:21;101208.94;;;8.40;99.40
19005;BME280;9635;52.078;8.648;2024-03-06T11:58:24;101208.09;;;8.39;96.75
19005;BME280;9635;52.078;8.648;2024-03-06T12:03:28;101203.94;;;8.50;100.00
19005;BME280;9635;52.078;8.648;2024-03-06T12:08:33;101213.25;;;8.58;100.00
19005;BME280;9635;52.078;8.648;2024-03-06T12:13:41;101222.34;;;8.56;97.97
19005;BME280;9635;52.078;8.648;2024-03-06T12:18:45;101210.00;;;8.53;100.00
19005;BME280;9635;52.078;8.648;2024-03-06T12:23:49;101217.84;;;8.56;100.00
19005;BME280;9635;52.078;8.648;2024-03-06T12:28:52;101217.94;;;8.69;100.00
19005;BME280;9635;52.078;8.648;2024-03-06T12:34:06;101220.16;;;8.77;98.80
19005;BME280;9635;52.078;8.648;2024-03-06T12:39:15;101219.16;;;8.94;99.12
19005;BME280;9635;52.078;8.648;2024-03-06T12:44:22;101223.84;;;9.04;97.98
19005;BME280;9635;52.078;8.648;2024-03-06T12:49:25;101216.41;;;9.24;98.89
19005;BME280;9635;52.078;8.648;2024-03-06T12:54:30;101220.13;;;9.64;100.00
19005;BME280;9635;52.078;8.648;2024-03-06T12:59:33;101211.09;;;10.21;100.00
19005;BME280;9635;52.078;8.648;2024-03-06T13:04:36;101218.44;;;10.32;88.88
19005;BME280;9635;52.078;8.648;2024-03-06T13:09:40;101215.38;;;10.51;90.03
19005;BME280;9635;52.078;8.648;2024-03-06T13:14:43;101213.25;;;10.56;93.10
19005;BME280;9635;52.078;8.648;2024-03-06T13:19:46;101229.19;;;10.45;91.01
19005;BME280;9635;52.078;8.648;2024-03-06T13:24:50;101221.53;;;9.99;91.22
19005;BME280;9635;52.078;8.648;2024-03-06T13:29:54;101218.94;;;9.97;92.26
19005;BME280;9635;52.078;8.648;2024-03-06T13:34:57;101221.06;;;10.19;96.62
19005;BME280;9635;52.078;8.648;2024-03-06T13:40:01;101222.38;;;10.53;95.54
19005;BME280;9635;52.078;8.648;2024-03-06T13:45:05;101218.22;;;10.88;92.31
19005;BME280;9635;52.078;8.648;2024-03-06T13:50:14;101228.31;;;10.84;83.16
19005;BME280;9635;52.078;8.648;2024-03-06T13:55:19;101233.66;;;10.71;88.61
19005;BME280;9635;52.078;8.648;2024-03-06T14:00:23;101229.03;;;10.60;95.17
19005;BME280;9635;52.078;8.648;2024-03-06T14:05:26;101234.72;;;10.56;93.25
19005;BME280;9635;52.078;8.648;2024-03-06T14:10:30;101242.25;;;10.51;93.48
19005;BME280;9635;52.078;8.648;2024-03-06T14:15:35;101235.53;;;10.44;88.73
19005;BME280;9635;52.078;8.648;2024-03-06T14:20:40;101235.88;;;10.52;93.85
19005;BME280;9635;52.078;8.648;2024-03-06T14:25:44;101242.88;;;10.54;86.97
19005;BME280;9635;52.078;8.648;2024-03-06T14:30:47;101247.84;;;10.60;89.85
19005;BME280;9635;52.078;8.648;2024-03-06T14:35:50;101232.84;;;10.96;90.25
19005;BME280;9635;52.078;8.648;2024-03-06T14:40:55;101240.84;;;11.36;90.64
19005;BME280;9635;52.078;8.648;2024-03-06T14:45:58;101242.59;;;11.24;82.19
19005;BME280;9635;52.078;8.648;2024-03-06T14:51:01;101245.69;;;11.18;87.64
19005;BME280;9635;52.078;8.648;2024-03-06T14:56:05;101241.38;;;11.03;86.52
19005;BME280;9635;52.078;8.648;2024-03-06T15:01:09;101243.81;;;10.93;87.07
19005;BME280;9635;52.078;8.648;2024-03-06T15:06:12;101237.97;;;11.14;85.44
19005;BME280;9635;52.078;8.648;2024-03-06T15:11:16;101239.97;;;10.97;77.57
19005;BME280;9635;52.078;8.648;2024-03-06T15:16:19;101241.34;;;10.90;77.22
19005;BME280;9635;52.078;8.648;2024-03-06T15:21:23;101252.72;;;10.94;77.27
19005;BME280;9635;52.078;8.648;2024-03-06T15:26:27;101258.06;;;10.68;75.89
19005;BME280;9635;52.078;8.648;2024-03-06T15:31:30;101254.63;;;10.26;75.49
19005;BME280;9635;52.078;8.648;2024-03-06T15:36:33;101251.28;;;10.08;79.28
19005;BME280;9635;52.078;8.648;2024-03-06T15:41:38;101251.13;;;9.83;77.52
19005;BME280;9635;52.078;8.648;2024-03-06T15:46:41;101254.31;;;9.61;79.89
19005;BME280;9635;52.078;8.648;2024-03-06T15:51:53;101258.75;;;9.47;80.37
19005;BME280;9635;52.078;8.648;2024-03-06T15:56:57;101262.19;;;9.35;81.15
19005;BME280;9635;52.078;8.648;2024-03-06T16:02:04;101265.16;;;9.16;81.64
19005;BME280;9635;52.078;8.648;2024-03-06T16:07:08;101263.78;;;9.09;82.41
19005;BME280;9635;52.078;8.648;2024-03-06T16:12:15;101267.03;;;9.00;81.65
19005;BME280;9635;52.078;8.648;2024-03-06T16:17:18;101273.44;;;8.97;84.36
19005;BME280;9635;52.078;8.648;2024-03-06T16:22:21;101279.13;;;8.91;83.10
19005;BME280;9635;52.078;8.648;2024-03-06T16:27:26;101285.06;;;8.82;83.18
19005;BME280;9635;52.078;8.648;2024-03-06T16:32:29;101288.19;;;8.74;81.98
19005;BME280;9635;52.078;8.648;2024-03-06T16:37:36;101295.75;;;8.68;83.61
19005;BME280;9635;52.078;8.648;2024-03-06T16:42:43;101294.66;;;8.56;81.78
19005;BME280;9635;52.078;8.648;2024-03-06T16:47:54;101304.75;;;8.51;84.79
19005;BME280;9635;52.078;8.648;2024-03-06T16:53:02;101311.31;;;8.45;85.52
19005;BME280;9635;52.078;8.648;2024-03-06T16:58:09;101314.16;;;8.42;86.32
19005;BME280;9635;52.078;8.648;2024-03-06T17:03:12;101317.88;;;8.39;86.29
19005;BME280;9635;52.078;8.648;2024-03-06T17:08:16;101312.78;;;8.35;84.61
19005;BME280;9635;52.078;8.648;2024-03-06T17:13:20;101323.13;;;8.25;82.10
19005;BME280;9635;52.078;8.648;2024-03-06T17:18:23;101330.28;;;8.25;85.49
19005;BME280;9635;52.078;8.648;2024-03-06T17:23:26;101334.19;;;8.19;84.36
19005;BME280;9635;52.078;8.648;2024-03-06T17:28:31;101338.75;;;8.17;85.77
19005;BME280;9635;52.078;8.648;2024-03-06T17:33:34;101341.53;;;8.15;86.76
19005;BME280;9635;52.078;8.648;2024-03-06T17:38:37;101342.44;;;8.14;85.87
19005;BME280;9635;52.078;8.648;2024-03-06T17:43:44;101360.34;;;8.14;87.47
19005;BME280;9635;52.078;8.648;2024-03-06T17:48:47;101362.16;;;8.13;88.36
19005;BME280;9635;52.078;8.648;2024-03-06T17:53:51;101362.31;;;8.10;88.23
19005;BME280;9635;52.078;8.648;2024-03-06T17:58:56;101371.63;;;8.03;84.24
19005;BME280;9635;52.078;8.648;2024-03-06T18:03:59;101371.44;;;8.06;86.57
19005;BME280;9635;52.078;8.648;2024-03-06T18:09:02;101375.25;;;8.02;84.90
19005;BME280;9635;52.078;8.648;2024-03-06T18:14:12;101378.63;;;8.06;87.54
19005;BME280;9635;52.078;8.648;2024-03-06T18:19:16;101384.94;;;8.05;87.68
19005;BME280;9635;52.078;8.648;2024-03-06T18:24:19;101381.56;;;8.01;86.40
19005;BME280;9635;52.078;8.648;2024-03-06T18:29:24;101389.66;;;8.00;84.88
19005;BME280;9635;52.078;8.648;2024-03-06T18:34:27;101384.50;;;7.97;83.34
19005;BME280;9635;52.078;8.648;2024-03-06T18:39:31;101387.16;;;7.97;83.73
19005;BME280;9635;52.078;8.648;2024-03-06T18:44:35;101379.22;;;7.95;83.77
19005;BME280;9635;52.078;8.648;2024-03-06T18:49:40;101394.50;;;7.93;81.12
19005;BME280;9635;52.078;8.648;2024-03-06T18:54:43;101380.00;;;7.97;84.24
19005;BME280;9635;52.078;8.648;2024-03-06T18:59:47;101398.72;;;7.97;84.29
19005;BME280;9635;52.078;8.648;2024-03-06T19:04:51;101398.03;;;7.93;83.24
19005;BME280;9635;52.078;8.648;2024-03-06T19:09:54;101406.13;;;7.92;82.49
19005;BME280;9635;52.078;8.648;2024-03-06T19:14:59;101402.53;;;7.93;82.55
19005;BME280;9635;52.078;8.648;2024-03-06T19:20:03;101407.00;;;7.92;82.48
19005;BME280;9635;52.078;8.648;2024-03-06T19:25:07;101410.47;;;7.94;81.82
19005;BME280;9635;52.078;8.648;2024-03-06T19:30:12;101414.09;;;7.93;81.37
19005;BME280;9635;52.078;8.648;2024-03-06T19:35:16;101410.56;;;7.93;80.62
19005;BME280;9635;52.078;8.648;2024-03-06T19:40:19;101407.00;;;7.92;79.81
19005;BME280;9635;52.078;8.648;2024-03-06T19:45:24;101408.81;;;7.92;78.97
19005;BME280;9635;52.078;8.648;2024-03-06T19:50:27;101412.44;;;7.91;77.89
19005;BME280;9635;52.078;8.648;2024-03-06T19:55:30;101414.31;;;7.89;75.83
19005;BME280;9635;52.078;8.648;2024-03-06T20:00:35;101411.28;;;7.79;72.09
19005;BME280;9635;52.078;8.648;2024-03-06T20:05:38;101417.50;;;7.80;70.08
19005;BME280;9635;52.078;8.648;2024-03-06T20:10:41;101420.97;;;7.82;71.01
19005;BME280;9635;52.078;8.648;2024-03-06T20:15:46;101417.22;;;7.84;71.67
19005;BME280;9635;52.078;8.648;2024-03-06T20:20:49;101425.34;;;7.83;72.33
19005;BME280;9635;52.078;8.648;2024-03-06T20:25:52;101431.56;;;7.83;71.82
19005;BME280;9635;52.078;8.648;2024-03-06T20:31:00;101423.94;;;7.76;70.83
19005;BME280;9635;52.078;8.648;2024-03-06T20:36:04;101422.22;;;7.75;71.04
19005;BME280;9635;52.078;8.648;2024-03-06T20:41:07;101424.03;;;7.74;70.67
19005;BME280;9635;52.078;8.648;2024-03-06T20:46:12;101424.28;;;7.69;70.56
19005;BME280;9635;52.078;8.648;2024-03-06T20:51:15;101425.41;;;7.65;69.18
19005;BME280;9635;52.078;8.648;2024-03-06T20:56:18;101432.94;;;7.57;68.37
19005;BME280;9635;52.078;8.648;2024-03-06T21:01:23;101431.13;;;7.58;68.60
19005;BME280;9635;52.078;8.648;2024-03-06T21:06:27;101438.53;;;7.53;69.20
19005;BME280;9635;52.078;8.648;2024-03-06T21:11:30;101438.69;;;7.49;69.83
19005;BME280;9635;52.078;8.648;2024-03-06T21:16:35;101437.66;;;7.35;70.45
19005;BME280;9635;52.078;8.648;2024-03-06T21:21:40;101440.00;;;7.06;71.49
19005;BME280;9635;52.078;8.648;2024-03-06T21:26:46;101432.19;;;6.82;72.15
19005;BME280;9635;52.078;8.648;2024-03-06T21:31:51;101440.22;;;6.63;72.85
19005;BME280;9635;52.078;8.648;2024-03-06T21:36:55;101449.28;;;6.42;73.79
19005;BME280;9635;52.078;8.648;2024-03-06T21:41:59;101439.28;;;6.27;74.28
19005;BME280;9635;52.078;8.648;2024-03-06T21:47:04;101450.75;;;6.10;74.74
19005;BME280;9635;52.078;8.648;2024-03-06T21:52:08;101453.03;;;5.99;73.15
19005;BME280;9635;52.078;8.648;2024-03-06T21:57:13;101454.38;;;5.88;72.33
19005;BME280;9635;52.078;8.648;2024-03-06T22:02:18;101456.44;;;5.82;71.23
19005;BME280;9635;52.078;8.648;2024-03-06T22:07:21;101462.78;;;5.79;70.56
19005;BME280;9635;52.078;8.648;2024-03-06T22:12:24;101464.91;;;5.71;69.98
19005;BME280;9635;52.078;8.648;2024-03-06T22:17:29;101469.03;;;5.58;70.35
19005;BME280;9635;52.078;8.648;2024-03-06T22:22:33;101466.88;;;5.45;70.94
19005;BME280;9635;52.078;8.648;2024-03-06T22:27:36;101480.56;;;5.38;71.30
19005;BME280;9635;52.078;8.648;2024-03-06T22:32:41;101482.69;;;5.30;70.83
19005;BME280;9635;52.078;8.648;2024-03-06T22:37:45;101482.78;;;5.26;71.38
19005;BME280;9635;52.078;8.648;2024-03-06T22:42:48;101479.09;;;5.09;71.38
19005;BME280;9635;52.078;8.648;2024-03-06T22:47:52;101473.03;;;5.05;71.46
19005;BME280;9635;52.078;8.648;2024-03-06T22:52:56;101482.06;;;5.01;71.33
19005;BME280;9635;52.078;8.648;2024-03-06T22:58:01;101485.66;;;5.00;71.02
19005;BME280;9635;52.078;8.648;2024-03-06T23:03:06;101479.09;;;4.85;71.52
19005;BME280;9635;52.078;8.648;2024-03-06T23:08:09;101484.56;;;4.82;71.61
19005;BME280;9635;52.078;8.648;2024-03-06T23:13:13;101476.00;;;4.74;71.93
19005;BME280;9635;52.078;8.648;2024-03-06T23:18:18;101478.09;;;4.66;72.34
19005;BME280;9635;52.078;8.648;2024-03-06T23:23:22;101478.94;;;4.66;72.00
19005;BME280;9635;52.078;8.648;2024-03-06T23:28:25;101480.81;;;4.64;72.32
19005;BME280;9635;52.078;8.648;2024-03-06T23:33:29;101484.47;;;4.61;72.95
19005;BME280;9635;52.078;8.648;2024-03-06T23:38:32;101481.97;;;4.57;73.42
19005;BME280;9635;52.078;8.648;2024-03-06T23:43:36;101485.28;;;4.64;73.97
19005;BME280;9635;52.078;8.648;2024-03-06T23:48:40;101484.84;;;4.74;74.09
19005;BME280;9635;52.078;8.648;2024-03-06T23:53:44;101481.72;;;4.87;74.10
19005;BME280;9635;52.078;8.648;2024-03-06T23:58:48;101479.88;;;4.89;73.65
